createdAt,value
2023-01-13T00:01:14.327Z,1.42
2023-01-13T00:06:20.585Z,3.63
2023-01-13T00:11:26.866Z,1.65
2023-01-13T00:16:31.831Z,3.33
2023-01-13T00:21:36.058Z,3.53
2023-01-13T00:26:41.496Z,2.22
2023-01-13T00:31:46.064Z,2.80
2023-01-13T00:36:52.321Z,4.63
2023-01-13T00:42:19.709Z,3.83
2023-01-13T00:47:24.399Z,2.17
2023-01-13T00:52:28.898Z,1.17
2023-01-13T00:57:35.061Z,3.30
2023-01-13T01:02:38.928Z,4.13
2023-01-13T01:07:42.825Z,3.47
2023-01-13T01:12:48.543Z,1.30
2023-01-13T01:17:52.634Z,0.82
2023-01-13T01:23:00.342Z,1.60
2023-01-13T01:28:05.576Z,0.55
2023-01-13T01:33:13.283Z,4.03
2023-01-13T01:38:20.156Z,2.40
2023-01-13T01:43:42.793Z,0.85
2023-01-13T01:48:46.491Z,2.45
2023-01-13T01:53:50.399Z,0.55
2023-01-13T01:58:56.053Z,1.33
2023-01-13T02:04:02.321Z,1.20
2023-01-13T02:09:08.393Z,0.80
2023-01-13T02:14:14.252Z,2.08
2023-01-13T02:19:29.523Z,0.30
2023-01-13T02:24:58.539Z,0.60
2023-01-13T02:30:32.603Z,1.35
2023-01-13T02:35:45.440Z,0.50
2023-01-13T02:40:51.628Z,0.88
2023-01-13T02:46:01.947Z,0.98
2023-01-13T02:51:07.287Z,0.32
2023-01-13T02:56:10.823Z,1.38
2023-01-13T03:01:15.974Z,0.63
2023-01-13T03:06:32.978Z,0.80
2023-01-13T03:11:40.286Z,0.30
2023-01-13T03:16:56.410Z,0.35
2023-01-13T03:22:04.265Z,1.15
2023-01-13T03:27:09.419Z,0.57
2023-01-13T03:32:16.740Z,1.30
2023-01-13T03:37:22.938Z,3.33
2023-01-13T03:42:29.541Z,0.85
2023-01-13T03:47:37.843Z,0.32
2023-01-13T03:52:44.719Z,0.65
2023-01-13T03:57:50.691Z,0.15
2023-01-13T04:02:58.849Z,0.22
2023-01-13T04:08:03.753Z,0.22
2023-01-13T04:13:08.742Z,0.20
2023-01-13T04:18:17.471Z,1.40
2023-01-13T04:23:21.586Z,0.67
2023-01-13T04:28:25.704Z,3.35
2023-01-13T04:33:31.761Z,1.02
2023-01-13T04:38:36.418Z,0.10
2023-01-13T04:43:41.165Z,0.20
2023-01-13T04:48:46.539Z,0.80
2023-01-13T04:53:52.407Z,1.40
2023-01-13T04:58:56.301Z,1.27
2023-01-13T05:04:04.439Z,1.70
2023-01-13T05:09:15.961Z,1.05
2023-01-13T05:14:38.695Z,2.35
2023-01-13T05:19:44.335Z,0.50
2023-01-13T05:25:06.400Z,2.38
2023-01-13T05:30:11.770Z,0.95
2023-01-13T05:35:22.599Z,1.05
2023-01-13T05:40:51.966Z,0.73
2023-01-13T05:46:06.389Z,3.60
2023-01-13T05:51:16.359Z,5.28
2023-01-13T05:56:25.416Z,1.92
2023-01-13T06:01:33.842Z,0.90
2023-01-13T06:06:42.611Z,0.90
2023-01-13T06:11:48.637Z,3.67
2023-01-13T06:16:54.872Z,1.73
2023-01-13T06:22:01.503Z,5.03
2023-01-13T06:27:12.814Z,2.45
2023-01-13T06:32:18.905Z,1.02
2023-01-13T06:37:28.608Z,1.88
2023-01-13T06:42:54.284Z,1.02
2023-01-13T06:48:00.960Z,2.92
2023-01-13T06:53:07.875Z,2.28
2023-01-13T06:58:11.261Z,1.35
2023-01-13T07:03:15.719Z,4.25
2023-01-13T07:08:23.628Z,5.38
2023-01-13T07:13:45.448Z,4.00
2023-01-13T07:18:50.641Z,2.45
2023-01-13T07:23:57.758Z,4.40
2023-01-13T07:29:06.118Z,4.90
2023-01-13T07:34:17.688Z,7.45
2023-01-13T07:39:22.684Z,7.15
2023-01-13T07:44:27.947Z,2.83
2023-01-13T07:49:38.287Z,5.90
2023-01-13T07:54:49.933Z,7.40
2023-01-13T07:59:58.066Z,3.72
2023-01-13T08:05:03.915Z,6.93
2023-01-13T08:10:11.397Z,6.15
2023-01-13T08:15:14.955Z,1.33
2023-01-13T08:20:18.832Z,5.35
2023-01-13T08:25:25.721Z,6.80
2023-01-13T08:30:33.727Z,7.55
2023-01-13T08:35:38.508Z,8.82
2023-01-13T08:40:48.836Z,6.95
2023-01-13T08:46:00.746Z,2.97
2023-01-13T08:51:07.192Z,5.30
2023-01-13T08:56:17.662Z,7.70
2023-01-13T09:01:23.946Z,10.48
2023-01-13T09:06:29.856Z,9.55
2023-01-13T09:12:12.102Z,8.88
2023-01-13T09:17:18.948Z,6.13
2023-01-13T09:22:30.208Z,4.88
2023-01-13T09:27:35.624Z,7.95
2023-01-13T09:32:39.560Z,10.13
2023-01-13T09:37:43.756Z,4.35
2023-01-13T09:43:08.978Z,4.28
2023-01-13T09:48:15.567Z,1.65
2023-01-13T09:53:21.648Z,10.93
2023-01-13T09:58:29.683Z,6.07
2023-01-13T10:03:36.840Z,9.97
2023-01-13T10:08:45.822Z,9.98
2023-01-13T10:19:07.207Z,8.75
2023-01-13T10:24:17.542Z,7.05
2023-01-13T10:29:26.915Z,2.60
2023-01-13T10:34:33.551Z,5.73
2023-01-13T10:39:41.596Z,9.32
2023-01-13T10:44:53.951Z,7.63
2023-01-13T10:50:23.483Z,5.53
2023-01-13T10:55:35.008Z,10.88
2023-01-13T11:00:42.631Z,6.72
2023-01-13T11:05:54.142Z,8.98
2023-01-13T11:10:59.538Z,5.40
2023-01-13T11:16:07.103Z,9.27
2023-01-13T11:21:17.463Z,4.35
2023-01-13T11:26:25.068Z,6.78
2023-01-13T11:31:32.133Z,8.95
2023-01-13T11:36:39.993Z,4.95
2023-01-13T11:42:16.567Z,6.22
2023-01-13T11:47:30.273Z,6.22
2023-01-13T11:52:55.890Z,8.05
2023-01-13T11:58:25.646Z,2.45
2023-01-13T12:03:38.283Z,9.23
2023-01-13T12:08:56.377Z,6.20
2023-01-13T12:14:15.930Z,8.63
2023-01-13T12:19:28.137Z,7.37
2023-01-13T12:24:33.765Z,7.88
2023-01-13T12:29:38.265Z,8.85
2023-01-13T12:34:53.518Z,3.30
2023-01-13T12:40:18.532Z,7.65
2023-01-13T12:45:32.945Z,6.07
2023-01-13T12:50:48.159Z,7.78
2023-01-13T12:55:53.771Z,8.27
2023-01-13T13:01:00.447Z,6.97
2023-01-13T13:06:11.855Z,6.45
2023-01-13T13:11:59.984Z,3.90
2023-01-13T13:17:05.690Z,2.75
2023-01-13T13:22:44.938Z,5.20
2023-01-13T13:27:51.650Z,3.72
2023-01-13T13:33:05.487Z,4.45
2023-01-13T13:38:38.071Z,11.82
2023-01-13T13:44:01.976Z,4.25
2023-01-13T13:49:06.585Z,5.57
2023-01-13T13:54:13.801Z,8.48
2023-01-13T13:59:19.583Z,5.85
2023-01-13T14:04:26.868Z,4.30
2023-01-13T14:09:42.832Z,6.28
2023-01-13T14:14:47.690Z,7.63
2023-01-13T14:20:01.258Z,7.28
2023-01-13T14:25:15.808Z,4.60
2023-01-13T14:30:22.259Z,3.20
2023-01-13T14:35:30.481Z,9.55
2023-01-13T14:40:50.733Z,6.30
2023-01-13T14:45:58.782Z,2.55
2023-01-13T14:51:08.242Z,2.60
2023-01-13T14:56:50.621Z,4.82
2023-01-13T15:01:57.888Z,4.63
2023-01-13T15:07:04.544Z,6.35
2023-01-13T15:12:19.262Z,5.00
2023-01-13T15:17:30.921Z,7.80
2023-01-13T15:22:35.370Z,4.72
2023-01-13T15:27:45.129Z,6.10
2023-01-13T15:32:50.685Z,4.53
2023-01-13T15:37:57.437Z,6.70
2023-01-13T15:43:19.519Z,8.10
2023-01-13T15:48:28.189Z,10.15
2023-01-13T15:53:33.621Z,7.47
2023-01-13T15:58:39.143Z,5.57
2023-01-13T16:03:45.790Z,7.68
2023-01-13T16:08:49.737Z,7.18
2023-01-13T16:13:54.675Z,10.30
2023-01-13T16:19:00.531Z,4.75
2023-01-13T16:24:07.548Z,5.88
2023-01-13T16:29:12.996Z,5.65
2023-01-13T16:34:19.668Z,7.35
2023-01-13T16:39:23.463Z,7.60
2023-01-13T16:44:31.698Z,10.88
2023-01-13T16:49:41.649Z,3.08
2023-01-13T16:54:48.386Z,4.80
2023-01-13T17:00:02.179Z,6.05
2023-01-13T17:05:08.573Z,7.78
2023-01-13T17:10:15.704Z,8.02
2023-01-13T17:15:21.863Z,4.15
2023-01-13T17:20:33.801Z,7.15
2023-01-13T17:25:46.576Z,8.15
2023-01-13T17:30:52.909Z,3.03
2023-01-13T17:36:11.817Z,6.25
2023-01-13T17:41:15.812Z,5.82
2023-01-13T17:46:23.916Z,7.68
2023-01-13T17:51:30.752Z,7.78
2023-01-13T17:56:38.224Z,8.23
2023-01-13T18:01:42.950Z,3.75
2023-01-13T18:06:53.887Z,6.78
2023-01-13T18:11:59.894Z,7.72
2023-01-13T18:17:04.358Z,7.78
2023-01-13T18:22:29.325Z,4.65
2023-01-13T18:27:34.442Z,7.18
2023-01-13T18:32:38.054Z,4.85
2023-01-13T18:37:48.974Z,7.40
2023-01-13T18:42:57.403Z,4.53
2023-01-13T18:48:06.136Z,6.13
2023-01-13T18:53:11.437Z,7.38
2023-01-13T18:58:15.695Z,7.30
2023-01-13T19:03:29.879Z,5.57
2023-01-13T19:08:37.150Z,10.38
2023-01-13T19:13:46.944Z,5.60
2023-01-13T19:18:53.378Z,8.80
2023-01-13T19:23:59.576Z,7.38
2023-01-13T19:29:03.969Z,11.35
2023-01-13T19:34:08.833Z,9.55
2023-01-13T19:39:14.495Z,13.18
2023-01-13T19:44:35.771Z,14.40
2023-01-13T19:49:40.195Z,13.75
2023-01-13T19:54:47.496Z,11.43
2023-01-13T19:59:52.014Z,7.70
2023-01-13T20:04:56.360Z,9.00
2023-01-13T20:10:01.891Z,10.93
2023-01-13T20:15:12.098Z,10.60
2023-01-13T20:20:16.817Z,9.48
2023-01-13T20:25:28.543Z,11.75
2023-01-13T20:30:31.894Z,12.80
2023-01-13T20:35:36.377Z,9.63
2023-01-13T20:40:50.313Z,9.55
2023-01-13T20:45:56.603Z,7.75
2023-01-13T20:51:00.656Z,9.00
2023-01-13T20:56:10.212Z,8.23
2023-01-13T21:06:22.337Z,13.68
2023-01-13T21:11:45.965Z,14.23
2023-01-13T21:16:50.868Z,12.98
2023-01-13T21:21:57.033Z,9.65
2023-01-13T21:27:10.922Z,13.85
2023-01-13T21:32:16.423Z,10.45
2023-01-13T21:37:19.814Z,11.40
2023-01-13T21:42:45.104Z,7.07
2023-01-13T21:47:54.803Z,9.23
2023-01-13T21:52:59.612Z,8.60
2023-01-13T21:58:09.621Z,6.20
2023-01-13T22:03:14.724Z,12.70
2023-01-13T22:08:18.593Z,6.45
2023-01-13T22:13:42.692Z,11.30
2023-01-13T22:18:46.010Z,9.82
2023-01-13T22:23:50.638Z,9.02
2023-01-13T22:28:57.227Z,11.10
2023-01-13T22:34:00.538Z,8.45
2023-01-13T22:39:04.873Z,10.70
2023-01-13T22:44:10.660Z,9.25
2023-01-13T22:49:14.798Z,12.18
2023-01-13T22:54:19.447Z,8.50
2023-01-13T22:59:25.340Z,10.23
2023-01-13T23:04:29.680Z,15.98
2023-01-13T23:09:33.619Z,8.38
2023-01-13T23:14:39.981Z,12.48
2023-01-13T23:19:45.652Z,13.45
2023-01-13T23:24:50.975Z,10.77
2023-01-13T23:29:56.378Z,12.07
2023-01-13T23:35:00.193Z,18.25
2023-01-13T23:40:07.168Z,12.15
2023-01-13T23:45:13.729Z,15.15
2023-01-13T23:50:18.576Z,7.10
2023-01-13T23:55:23.700Z,9.95
